This is the latest recevied weather packets stored in our database for station/object K9ABJ. If no packets are shown the sender has not sent any weather packets the latest 10 day(s).
| Time | Temp. | Humidity | Pressure | Rain* | Wind** | Luminosity | Snow |
|---|---|---|---|---|---|---|---|
| 1787847527 | 30° C | 59% | 1015.9 hPa | 0 mm | - | 573 W/m² | - |
| 1787847222 | 28.33° C | 62% | 1015.7 hPa | 0 mm | - | 500 W/m² | - |
| 1787846919 | 28.89° C | 61% | 1015.9 hPa | 0 mm | - | 482 W/m² | - |
| 1787846618 | 29.44° C | 60% | 1015.9 hPa | 0 mm | - | 493 W/m² | - |
| 1787846313 | 28.33° C | 60% | 1015.8 hPa | 0 mm | - | 520 W/m² | - |
| 1787846009 | 27.78° C | 62% | 1015.9 hPa | 0 mm | - | 439 W/m² | - |
| 1787845705 | 26.67° C | 65% | 1015.7 hPa | 0 mm | - | 444 W/m² | - |
| 1787845404 | 26.67° C | 69% | 1015.8 hPa | 0 mm | - | 483 W/m² | - |
| 1787845101 | 28.33° C | 65% | 1015.7 hPa | 0 mm | - | 608 W/m² | - |
| 1787844796 | 27.22° C | 67% | 1015.6 hPa | 0 mm | - | 557 W/m² | - |
| 1787844495 | 27.78° C | 65% | 1015.8 hPa | 0 mm | - | 553 W/m² | - |
| 1787844190 | 27.22° C | 69% | 1015.6 hPa | 0 mm | - | 574 W/m² | - |
| 1787843889 | 27.22° C | 67% | 1015.5 hPa | 0 mm | - | 510 W/m² | - |
| 1787843585 | 26.67° C | 67% | 1015.7 hPa | 0 mm | - | 489 W/m² | - |
| 1787843281 | 27.22° C | 68% | 1015.4 hPa | 0 mm | - | 323 W/m² | - |
| 1787842977 | 27.78° C | 67% | 1015.3 hPa | 0 mm | - | 289 W/m² | - |
| 1787842675 | 26.67° C | 68% | 1015.5 hPa | 0 mm | - | 302 W/m² | - |
| 1787842372 | 27.78° C | 67% | 1015.3 hPa | 0 mm | - | 323 W/m² | - |
| 1787842072 | 26.67° C | 70% | 1015.6 hPa | 0 mm | - | 494 W/m² | - |
| 1787841767 | 26.11° C | 71% | 1015.3 hPa | 0 mm | - | 462 W/m² | - |
| 1787841463 | 26.67° C | 70% | 1015.2 hPa | 0 mm | - | 456 W/m² | - |
| 1787841162 | 25.56° C | 72% | 1015.1 hPa | 0 mm | - | 328 W/m² | - |
| 1787840857 | 25.56° C | 74% | 1015.1 hPa | 0 mm | - | 265 W/m² | - |
| 1787840552 | 26.67° C | 70% | 1014.8 hPa | 0 mm | - | 246 W/m² | - |
| 1787840247 | 25° C | 76% | 1015.1 hPa | 0 mm | - | 329 W/m² | - |
* Rain latest hour (hover to see other rain measurements)
** Current wind speed in m/s (hover to see current wind gust speed)